createdAt,value
2022-09-17T00:02:33.438Z,14.98
2022-09-17T00:05:18.990Z,14.92
2022-09-17T00:08:05.695Z,14.92
2022-09-17T00:10:50.944Z,14.91
2022-09-17T00:13:36.668Z,14.83
2022-09-17T00:16:23.856Z,14.77
2022-09-17T00:19:13.489Z,14.72
2022-09-17T00:21:58.831Z,14.69
2022-09-17T00:24:44.696Z,14.68
2022-09-17T00:27:30.224Z,14.67
2022-09-17T00:30:15.924Z,14.67
2022-09-17T00:33:01.417Z,14.68
2022-09-17T00:35:57.567Z,14.66
2022-09-17T00:38:43.448Z,14.62
2022-09-17T00:41:30.702Z,14.62
2022-09-17T00:44:35.113Z,14.67
2022-09-17T00:47:26.973Z,14.73
2022-09-17T00:50:17.569Z,14.77
2022-09-17T00:53:13.918Z,14.79
2022-09-17T00:56:03.317Z,14.80
2022-09-17T00:58:49.767Z,14.78
2022-09-17T01:01:36.090Z,14.77
2022-09-17T01:04:25.971Z,14.70
2022-09-17T01:07:29.850Z,14.64
2022-09-17T01:10:35.333Z,14.59
2022-09-17T01:13:20.480Z,14.61
2022-09-17T01:16:06.051Z,14.62
2022-09-17T01:19:00.750Z,14.60
2022-09-17T01:21:49.093Z,14.59
2022-09-17T01:24:37.447Z,14.60
2022-09-17T01:27:58.170Z,14.61
2022-09-17T01:31:04.878Z,14.65
2022-09-17T01:34:05.624Z,14.67
2022-09-17T01:36:58.362Z,14.65
2022-09-17T01:40:00.889Z,14.64
2022-09-17T01:42:49.278Z,14.60
2022-09-17T01:45:37.901Z,14.59
2022-09-17T01:48:27.134Z,14.57
2022-09-17T01:51:14.899Z,14.55
2022-09-17T01:54:06.795Z,14.55
2022-09-17T01:56:55.466Z,14.52
2022-09-17T01:59:52.094Z,14.46
2022-09-17T02:02:41.501Z,14.38
2022-09-17T02:05:39.564Z,14.29
2022-09-17T02:08:26.528Z,14.29
2022-09-17T02:11:15.249Z,14.30
2022-09-17T02:14:04.030Z,14.29
2022-09-17T02:16:55.321Z,14.29
2022-09-17T02:19:41.193Z,14.28
2022-09-17T02:22:30.389Z,14.25
2022-09-17T02:25:18.835Z,14.21
2022-09-17T02:28:10.246Z,14.13
2022-09-17T02:30:55.822Z,14.10
2022-09-17T02:33:42.210Z,14.08
2022-09-17T02:36:28.509Z,14.04
2022-09-17T02:39:14.033Z,14.05
2022-09-17T02:42:05.774Z,14.04
2022-09-17T02:44:55.324Z,14.06
2022-09-17T02:48:00.642Z,14.03
2022-09-17T02:50:53.145Z,13.99
2022-09-17T02:53:56.839Z,13.99
2022-09-17T02:56:57.530Z,13.97
2022-09-17T03:00:21.538Z,13.91
2022-09-17T03:03:13.382Z,13.87
2022-09-17T03:05:59.290Z,13.88
2022-09-17T03:08:47.571Z,13.88
2022-09-17T03:11:33.026Z,13.88
2022-09-17T03:14:20.741Z,13.86
2022-09-17T03:17:06.228Z,13.89
2022-09-17T03:19:51.515Z,13.93
2022-09-17T03:22:36.850Z,13.99
2022-09-17T03:25:22.134Z,14.05
2022-09-17T03:28:07.780Z,14.09
2022-09-17T03:30:53.697Z,14.12
2022-09-17T03:33:39.063Z,14.14
2022-09-17T03:36:24.676Z,14.17
2022-09-17T03:39:09.967Z,14.16
2022-09-17T03:41:55.550Z,14.11
2022-09-17T03:44:45.205Z,14.10
2022-09-17T03:47:30.897Z,14.10
2022-09-17T03:50:16.551Z,14.12
2022-09-17T03:53:02.027Z,14.09
2022-09-17T03:55:47.069Z,14.08
2022-09-17T03:58:32.889Z,14.09
2022-09-17T04:01:18.434Z,14.10
2022-09-17T04:04:03.946Z,14.10
2022-09-17T04:06:49.325Z,14.09
2022-09-17T04:09:35.350Z,14.12
2022-09-17T04:12:20.983Z,14.12
2022-09-17T04:15:06.396Z,14.12
2022-09-17T04:17:54.979Z,14.10
2022-09-17T04:20:40.237Z,14.09
2022-09-17T04:23:25.396Z,14.10
2022-09-17T04:26:11.293Z,14.08
2022-09-17T04:28:56.582Z,14.04
2022-09-17T04:31:42.134Z,14.01
2022-09-17T04:34:27.671Z,13.97
2022-09-17T04:37:12.919Z,13.95
2022-09-17T04:39:58.625Z,13.94
2022-09-17T04:42:43.928Z,13.94
2022-09-17T04:45:30.736Z,13.94
2022-09-17T04:48:16.235Z,13.94
2022-09-17T04:51:01.301Z,13.87
2022-09-17T04:53:46.963Z,13.82
2022-09-17T04:56:32.645Z,13.80
2022-09-17T04:59:18.038Z,13.79
2022-09-17T05:02:03.755Z,13.79
2022-09-17T05:04:50.732Z,13.79
2022-09-17T05:07:38.496Z,13.79
2022-09-17T05:10:24.313Z,13.78
2022-09-17T05:13:09.998Z,13.77
2022-09-17T05:15:56.733Z,13.73
2022-09-17T05:18:42.009Z,13.67
2022-09-17T05:21:27.015Z,13.66
2022-09-17T05:24:12.384Z,13.67
2022-09-17T05:26:58.013Z,13.68
2022-09-17T05:29:43.351Z,13.70
2022-09-17T05:32:28.889Z,13.75
2022-09-17T05:35:14.444Z,13.79
2022-09-17T05:38:04.564Z,13.80
2022-09-17T05:40:49.711Z,13.81
2022-09-17T05:43:35.319Z,13.82
2022-09-17T05:46:20.380Z,13.86
2022-09-17T05:49:05.996Z,13.92
2022-09-17T05:51:51.935Z,13.97
2022-09-17T05:54:37.370Z,14.02
2022-09-17T05:57:23.106Z,14.06
2022-09-17T06:00:09.543Z,14.10
2022-09-17T06:03:02.252Z,14.13
2022-09-17T06:06:00.209Z,14.15
2022-09-17T06:08:45.590Z,14.20
2022-09-17T06:11:31.528Z,14.23
2022-09-17T06:14:17.352Z,14.25
2022-09-17T06:17:03.235Z,14.26
2022-09-17T06:19:48.828Z,14.25
2022-09-17T06:22:34.851Z,14.28
2022-09-17T06:25:20.570Z,14.29
2022-09-17T06:28:06.347Z,14.31
2022-09-17T06:30:57.199Z,14.34
2022-09-17T06:33:42.858Z,14.35
2022-09-17T06:36:28.928Z,14.36
2022-09-17T06:39:20.684Z,14.39
2022-09-17T06:42:07.105Z,14.43
2022-09-17T06:44:53.056Z,14.46
2022-09-17T06:47:39.215Z,14.44
2022-09-17T06:50:25.525Z,14.42
2022-09-17T06:53:11.822Z,14.42
2022-09-17T06:56:02.326Z,14.40
2022-09-17T06:58:50.692Z,14.37
2022-09-17T07:01:36.438Z,14.38
2022-09-17T07:04:21.942Z,14.41
2022-09-17T07:07:07.061Z,14.44
2022-09-17T07:09:53.710Z,14.49
2022-09-17T07:12:44.453Z,14.50
2022-09-17T07:15:32.624Z,14.51
2022-09-17T07:18:17.949Z,14.52
2022-09-17T07:21:04.459Z,14.54
2022-09-17T07:23:51.546Z,14.52
2022-09-17T07:26:37.963Z,14.53
2022-09-17T07:29:32.452Z,14.57
2022-09-17T07:32:19.809Z,14.60
2022-09-17T07:35:05.631Z,14.61
2022-09-17T07:37:51.517Z,14.62
2022-09-17T07:40:38.100Z,14.62
2022-09-17T07:43:24.304Z,14.65
2022-09-17T07:46:15.207Z,14.66
2022-09-17T07:49:01.184Z,14.68
2022-09-17T07:51:46.837Z,13.80
2022-09-17T07:54:33.531Z,14.70
2022-09-17T07:57:18.903Z,14.69
2022-09-17T08:01:23.800Z,14.67
2022-09-17T08:04:09.481Z,14.72
2022-09-17T08:06:55.657Z,14.75
2022-09-17T08:09:41.271Z,14.76
2022-09-17T08:12:26.963Z,14.77
2022-09-17T08:15:12.267Z,14.72
2022-09-17T08:17:57.763Z,14.64
2022-09-17T08:20:43.459Z,14.61
2022-09-17T08:23:29.480Z,14.65
2022-09-17T08:26:16.062Z,14.72
2022-09-17T08:29:02.175Z,14.79
2022-09-17T08:31:48.398Z,14.87
2022-09-17T08:34:34.209Z,14.96
2022-09-17T08:37:19.756Z,15.04
2022-09-17T08:40:06.356Z,14.23
2022-09-17T08:43:02.477Z,15.16
2022-09-17T08:45:55.143Z,15.19
2022-09-17T08:49:06.132Z,15.27
2022-09-17T08:51:53.447Z,15.35
2022-09-17T08:54:45.327Z,15.42
2022-09-17T08:57:31.701Z,15.47
2022-09-17T09:00:18.796Z,15.53
2022-09-17T09:03:23.301Z,15.61
2022-09-17T09:06:10.985Z,15.67
2022-09-17T09:09:19.871Z,15.70
2022-09-17T09:12:07.950Z,15.71
2022-09-17T09:14:59.926Z,15.71
2022-09-17T09:17:47.095Z,15.71
2022-09-17T09:20:51.990Z,15.66
2022-09-17T09:23:46.375Z,15.64
2022-09-17T09:26:34.800Z,15.64
2022-09-17T09:29:29.949Z,15.65
2022-09-17T09:32:25.297Z,15.69
2022-09-17T09:35:17.252Z,15.72
2022-09-17T09:38:09.198Z,15.75
2022-09-17T09:41:07.356Z,15.72
2022-09-17T09:44:04.500Z,15.69
2022-09-17T09:47:09.234Z,15.71
2022-09-17T09:50:08.789Z,15.78
2022-09-17T09:53:19.206Z,15.85
2022-09-17T09:56:09.763Z,15.95
2022-09-17T09:58:54.963Z,16.00
2022-09-17T10:01:41.909Z,16.01
2022-09-17T10:04:28.815Z,16.08
2022-09-17T10:07:14.870Z,16.17
2022-09-17T10:10:08.771Z,16.27
2022-09-17T10:13:08.331Z,15.62
2022-09-17T10:15:53.698Z,16.48
2022-09-17T10:18:40.155Z,16.57
2022-09-17T10:21:33.139Z,16.60
2022-09-17T10:24:27.055Z,16.59
2022-09-17T10:27:14.179Z,16.56
2022-09-17T10:30:08.664Z,16.52
2022-09-17T10:33:17.712Z,16.52
2022-09-17T10:36:04.536Z,16.59
2022-09-17T10:38:50.296Z,16.63
2022-09-17T10:41:36.051Z,16.69
2022-09-17T10:44:23.112Z,16.78
2022-09-17T10:47:14.052Z,16.85
2022-09-17T10:50:01.400Z,16.87
2022-09-17T10:52:47.847Z,16.90
2022-09-17T10:55:45.560Z,16.95
2022-09-17T10:58:46.455Z,17.01
2022-09-17T11:01:41.107Z,17.06
2022-09-17T11:04:26.871Z,17.12
2022-09-17T11:07:44.723Z,17.15
2022-09-17T11:10:43.544Z,17.25
2022-09-17T11:13:29.283Z,17.32
2022-09-17T11:16:33.301Z,17.37
2022-09-17T11:19:48.734Z,17.41
2022-09-17T11:22:52.171Z,17.44
2022-09-17T11:25:43.359Z,17.43
2022-09-17T11:28:28.967Z,17.44
2022-09-17T11:31:24.272Z,17.45
2022-09-17T11:34:27.887Z,17.47
2022-09-17T11:37:32.068Z,17.49
2022-09-17T11:40:22.355Z,17.52
2022-09-17T11:43:15.555Z,17.53
2022-09-17T11:46:04.590Z,17.51
2022-09-17T11:49:02.057Z,17.52
2022-09-17T11:51:50.506Z,17.50
2022-09-17T11:55:08.115Z,17.51
2022-09-17T11:57:59.746Z,17.53
2022-09-17T12:00:50.505Z,17.50
2022-09-17T12:03:40.376Z,17.50
2022-09-17T12:06:36.409Z,17.53
2022-09-17T12:09:25.987Z,17.55
2022-09-17T12:12:45.054Z,17.58
2022-09-17T12:15:25.789Z,17.52
2022-09-17T12:18:30.989Z,17.54
2022-09-17T12:21:20.287Z,17.57
2022-09-17T12:24:13.567Z,17.57
2022-09-17T12:27:16.990Z,17.52
2022-09-17T12:30:02.537Z,17.49
2022-09-17T12:33:10.508Z,17.49
2022-09-17T12:36:05.171Z,17.50
2022-09-17T12:38:51.160Z,17.52
2022-09-17T12:41:46.443Z,17.57
2022-09-17T12:44:31.865Z,17.59
2022-09-17T12:47:17.019Z,17.60
2022-09-17T12:50:11.572Z,17.63
2022-09-17T12:53:08.623Z,17.61
2022-09-17T12:56:01.922Z,17.61
2022-09-17T12:59:10.241Z,17.64
2022-09-17T13:01:58.881Z,17.65
2022-09-17T13:05:00.876Z,17.68
2022-09-17T13:08:16.567Z,17.72
2022-09-17T13:11:04.869Z,17.69
2022-09-17T13:13:57.524Z,17.65
2022-09-17T13:16:51.897Z,17.61
2022-09-17T13:19:52.929Z,17.57
2022-09-17T13:22:44.081Z,17.54
2022-09-17T13:25:30.046Z,17.52
2022-09-17T13:28:15.621Z,17.49
2022-09-17T13:31:02.188Z,17.48
2022-09-17T13:33:56.284Z,17.43
2022-09-17T13:36:47.402Z,17.37
2022-09-17T13:39:40.610Z,17.35
2022-09-17T13:42:29.166Z,17.34
2022-09-17T13:45:16.278Z,17.34
2022-09-17T13:48:03.137Z,17.31
2022-09-17T13:50:50.288Z,17.30
2022-09-17T13:53:38.886Z,17.30
2022-09-17T13:56:36.713Z,17.33
2022-09-17T13:59:24.927Z,17.36
2022-09-17T14:02:16.224Z,17.39
2022-09-17T14:05:20.141Z,17.42
2022-09-17T14:08:25.112Z,17.43
2022-09-17T14:11:22.847Z,17.43
2022-09-17T14:14:14.414Z,17.43
2022-09-17T14:17:00.384Z,17.44
2022-09-17T14:19:51.500Z,17.43
2022-09-17T14:22:37.695Z,17.43
2022-09-17T14:25:28.940Z,17.42
2022-09-17T14:28:18.363Z,17.43
2022-09-17T14:31:09.447Z,17.42
2022-09-17T14:33:55.365Z,17.40
2022-09-17T14:36:42.444Z,17.38
2022-09-17T14:39:30.398Z,17.34
2022-09-17T14:42:21.991Z,17.28
2022-09-17T14:45:23.022Z,17.26
2022-09-17T14:48:27.521Z,17.24
2022-09-17T14:51:19.138Z,17.26
2022-09-17T14:54:09.970Z,17.29
2022-09-17T14:57:21.313Z,17.29
2022-09-17T15:00:10.972Z,17.29
2022-09-17T15:02:59.721Z,17.31
2022-09-17T15:05:47.631Z,17.31
2022-09-17T15:08:34.082Z,17.32
2022-09-17T15:11:19.851Z,17.34
2022-09-17T15:14:07.003Z,17.36
2022-09-17T15:16:54.993Z,17.37
2022-09-17T15:19:42.171Z,17.35
2022-09-17T15:22:29.845Z,17.37
2022-09-17T15:25:18.290Z,17.35
2022-09-17T15:28:08.937Z,17.34
2022-09-17T15:30:54.275Z,17.33
2022-09-17T15:33:40.376Z,17.32
2022-09-17T15:36:27.769Z,17.33
2022-09-17T15:39:29.961Z,17.33
2022-09-17T15:42:24.313Z,17.30
2022-09-17T15:45:19.148Z,17.29
2022-09-17T15:48:10.950Z,17.25
2022-09-17T15:50:57.789Z,17.21
2022-09-17T15:53:51.287Z,17.16
2022-09-17T15:56:38.882Z,17.10
2022-09-17T15:59:31.971Z,17.05
2022-09-17T16:02:28.585Z,17.00
2022-09-17T16:05:14.480Z,16.94
2022-09-17T16:08:16.794Z,16.89
2022-09-17T16:11:02.001Z,16.86
2022-09-17T16:13:48.602Z,16.83
2022-09-17T16:16:35.926Z,16.82
2022-09-17T16:19:22.155Z,16.84
2022-09-17T16:22:08.071Z,16.85
2022-09-17T16:24:53.725Z,16.84
2022-09-17T16:27:54.812Z,16.81
2022-09-17T16:30:45.246Z,16.81
2022-09-17T16:33:30.834Z,16.80
2022-09-17T16:36:17.059Z,16.78
2022-09-17T16:39:02.507Z,16.77
2022-09-17T16:41:47.778Z,16.74
2022-09-17T16:44:34.236Z,16.70
2022-09-17T16:47:20.049Z,16.63
2022-09-17T16:50:06.869Z,16.55
2022-09-17T16:52:53.521Z,16.47
2022-09-17T16:55:38.786Z,16.40
2022-09-17T16:58:24.354Z,16.35
2022-09-17T17:01:13.597Z,16.31
2022-09-17T17:04:00.807Z,16.25
2022-09-17T17:06:47.007Z,16.19
2022-09-17T17:09:32.621Z,16.14
2022-09-17T17:12:18.192Z,16.08
2022-09-17T17:15:06.085Z,15.98
2022-09-17T17:17:53.065Z,15.87
2022-09-17T17:20:40.304Z,15.77
2022-09-17T17:23:25.492Z,15.71
2022-09-17T17:26:11.063Z,15.70
2022-09-17T17:28:57.591Z,15.76
2022-09-17T17:31:43.539Z,15.85
2022-09-17T17:34:29.951Z,15.92
2022-09-17T17:37:15.198Z,15.96
2022-09-17T17:40:01.945Z,15.96
2022-09-17T17:42:51.651Z,15.92
2022-09-17T17:45:38.015Z,15.88
2022-09-17T17:48:23.801Z,15.82
2022-09-17T17:51:10.512Z,15.75
2022-09-17T17:53:55.889Z,15.71
2022-09-17T17:56:41.620Z,15.69
2022-09-17T17:59:27.247Z,15.67
2022-09-17T18:02:12.504Z,15.69
2022-09-17T18:05:02.040Z,15.71
2022-09-17T18:07:50.214Z,15.72
2022-09-17T18:10:35.705Z,15.72
2022-09-17T18:13:21.803Z,15.75
2022-09-17T18:16:09.120Z,15.78
2022-09-17T18:18:55.237Z,15.78
2022-09-17T18:21:40.791Z,15.76
2022-09-17T18:24:26.234Z,15.68
2022-09-17T18:27:11.652Z,15.58
2022-09-17T18:29:57.596Z,15.48
2022-09-17T18:32:42.937Z,15.36
2022-09-17T18:35:29.377Z,15.23
2022-09-17T18:38:15.712Z,15.17
2022-09-17T18:41:05.101Z,15.16
2022-09-17T18:43:50.853Z,15.10
2022-09-17T18:46:37.195Z,15.03
2022-09-17T18:49:22.545Z,14.97
2022-09-17T18:52:07.949Z,14.93
2022-09-17T18:54:53.457Z,14.87
2022-09-17T18:57:39.119Z,14.78
2022-09-17T19:00:24.769Z,14.69
2022-09-17T19:03:10.146Z,14.61
2022-09-17T19:05:58.664Z,14.54
2022-09-17T19:08:44.965Z,14.49
2022-09-17T19:11:31.446Z,14.43
2022-09-17T19:14:17.478Z,14.36
2022-09-17T19:17:02.766Z,14.27
2022-09-17T19:19:48.496Z,14.22
2022-09-17T19:22:33.858Z,14.15
2022-09-17T19:25:23.315Z,14.07
2022-09-17T19:28:08.839Z,14.00
2022-09-17T19:30:54.571Z,13.96
2022-09-17T19:33:39.896Z,13.92
2022-09-17T19:36:26.293Z,13.91
2022-09-17T19:39:12.321Z,13.91
2022-09-17T19:41:58.113Z,13.91
2022-09-17T19:44:43.397Z,13.85
2022-09-17T19:47:28.827Z,13.79
2022-09-17T19:50:15.066Z,13.73
2022-09-17T19:53:00.607Z,13.68
2022-09-17T19:55:46.508Z,13.64
2022-09-17T19:58:31.854Z,12.69
2022-09-17T20:01:17.794Z,13.57
2022-09-17T20:04:04.593Z,13.59
2022-09-17T20:06:50.080Z,13.62
2022-09-17T20:09:35.797Z,13.64
2022-09-17T20:12:21.119Z,13.61
2022-09-17T20:15:06.714Z,13.58
2022-09-17T20:17:52.271Z,13.54
2022-09-17T20:20:38.447Z,12.82
2022-09-17T20:23:23.679Z,13.49
2022-09-17T20:26:10.483Z,13.46
2022-09-17T20:28:55.750Z,13.44
2022-09-17T20:31:41.314Z,13.39
2022-09-17T20:34:26.915Z,13.35
2022-09-17T20:37:13.822Z,13.34
2022-09-17T20:39:59.459Z,13.34
2022-09-17T20:42:44.983Z,13.33
2022-09-17T20:45:30.322Z,13.29
2022-09-17T20:48:15.927Z,13.25
2022-09-17T20:51:03.192Z,13.20
2022-09-17T20:53:48.923Z,13.15
2022-09-17T20:56:34.945Z,13.10
2022-09-17T20:59:24.888Z,13.06
2022-09-17T21:02:11.483Z,13.02
2022-09-17T21:04:56.726Z,12.98
2022-09-17T21:07:42.118Z,12.96
2022-09-17T21:10:27.799Z,12.95
2022-09-17T21:13:13.157Z,12.96
2022-09-17T21:15:59.476Z,13.00
2022-09-17T21:18:44.904Z,13.03
2022-09-17T21:21:30.391Z,13.07
2022-09-17T21:24:15.742Z,13.11
2022-09-17T21:27:01.402Z,13.16
2022-09-17T21:29:46.752Z,13.19
2022-09-17T21:32:32.511Z,13.20
2022-09-17T21:35:17.666Z,13.23
2022-09-17T21:38:03.195Z,13.25
2022-09-17T21:40:58.482Z,13.26
2022-09-17T21:43:44.165Z,13.30
2022-09-17T21:46:33.062Z,13.30
2022-09-17T21:49:18.536Z,13.27
2022-09-17T21:52:04.045Z,13.20
2022-09-17T21:54:49.694Z,13.12
2022-09-17T21:57:35.161Z,13.03
2022-09-17T22:00:23.407Z,12.96
2022-09-17T22:03:09.188Z,12.87
2022-09-17T22:05:54.376Z,12.77
2022-09-17T22:08:39.833Z,12.66
2022-09-17T22:11:27.894Z,12.58
2022-09-17T22:14:15.292Z,12.56
2022-09-17T22:17:00.719Z,12.52
2022-09-17T22:19:45.995Z,12.51
2022-09-17T22:22:30.976Z,12.50
2022-09-17T22:25:16.284Z,12.50
2022-09-17T22:28:20.103Z,12.48
2022-09-17T22:31:07.781Z,12.49
2022-09-17T22:33:53.051Z,12.50
2022-09-17T22:36:38.748Z,12.53
2022-09-17T22:39:24.057Z,12.51
2022-09-17T22:42:09.358Z,12.49
2022-09-17T22:44:55.064Z,12.44
2022-09-17T22:47:40.782Z,12.37
2022-09-17T22:50:25.908Z,12.31
2022-09-17T22:53:11.533Z,12.26
2022-09-17T22:55:57.692Z,12.24
2022-09-17T22:58:43.455Z,12.21
2022-09-17T23:01:30.081Z,12.18
2022-09-17T23:04:15.367Z,12.13
2022-09-17T23:07:00.746Z,12.08
2022-09-17T23:09:46.175Z,12.04
2022-09-17T23:12:31.688Z,12.00
2022-09-17T23:15:16.675Z,11.97
2022-09-17T23:18:01.680Z,11.94
2022-09-17T23:21:00.366Z,11.92
2022-09-17T23:23:47.489Z,11.92
2022-09-17T23:26:32.686Z,11.94
2022-09-17T23:29:18.383Z,11.95
2022-09-17T23:32:03.709Z,11.95
2022-09-17T23:34:49.148Z,11.93
2022-09-17T23:37:34.693Z,11.92
2022-09-17T23:40:22.082Z,11.89
2022-09-17T23:43:07.142Z,11.83
2022-09-17T23:45:56.458Z,11.79
2022-09-17T23:48:41.818Z,11.76
2022-09-17T23:51:30.665Z,11.75
2022-09-17T23:54:15.908Z,11.74
2022-09-17T23:57:01.594Z,11.73
2022-09-17T23:59:47.030Z,11.69
